createdAt,value
2023-08-23T00:00:14.408Z,2.33
2023-08-23T00:02:42.245Z,2.75
2023-08-23T00:05:10.023Z,2.63
2023-08-23T00:07:38.288Z,2.60
2023-08-23T00:10:06.362Z,2.05
2023-08-23T00:12:33.908Z,1.90
2023-08-23T00:15:01.540Z,2.22
2023-08-23T00:17:30.332Z,1.83
2023-08-23T00:19:57.878Z,2.10
2023-08-23T00:22:25.378Z,2.70
2023-08-23T00:24:52.872Z,2.80
2023-08-23T00:27:20.539Z,2.35
2023-08-23T00:29:48.166Z,2.53
2023-08-23T00:32:15.800Z,2.25
2023-08-23T00:34:43.344Z,2.38
2023-08-23T00:37:10.773Z,2.58
2023-08-23T00:39:38.427Z,2.35
2023-08-23T00:42:06.010Z,2.03
2023-08-23T00:44:34.724Z,2.13
2023-08-23T00:47:05.972Z,2.42
2023-08-23T00:49:35.954Z,2.20
2023-08-23T00:52:05.622Z,2.33
2023-08-23T00:54:33.445Z,1.90
2023-08-23T00:57:04.850Z,2.10
2023-08-23T00:59:33.857Z,2.22
2023-08-23T01:02:01.597Z,1.88
2023-08-23T01:04:29.694Z,2.47
2023-08-23T01:07:03.088Z,2.20
2023-08-23T01:09:46.869Z,2.72
2023-08-23T01:12:26.921Z,2.25
2023-08-23T01:15:12.196Z,2.78
2023-08-23T01:17:46.232Z,2.55
2023-08-23T01:20:16.266Z,2.38
2023-08-23T01:23:16.046Z,2.15
2023-08-23T01:25:53.542Z,1.90
2023-08-23T01:28:21.517Z,2.70
2023-08-23T01:30:50.711Z,2.53
2023-08-23T01:33:36.543Z,2.78
2023-08-23T01:36:38.137Z,2.25
2023-08-23T01:39:06.397Z,2.65
2023-08-23T01:41:34.597Z,2.60
2023-08-23T01:44:02.182Z,2.55
2023-08-23T01:46:29.707Z,2.33
2023-08-23T01:48:57.627Z,2.15
2023-08-23T01:51:25.176Z,2.42
2023-08-23T01:53:52.680Z,2.30
2023-08-23T01:56:20.232Z,13.02
2023-08-23T01:58:47.631Z,3.03
2023-08-23T02:01:15.349Z,2.60
2023-08-23T02:03:43.145Z,2.38
2023-08-23T02:06:10.755Z,2.47
2023-08-23T02:08:39.450Z,2.60
2023-08-23T02:11:06.970Z,2.28
2023-08-23T02:13:34.610Z,2.80
2023-08-23T02:16:02.592Z,2.42
2023-08-23T02:18:32.008Z,2.25
2023-08-23T02:21:00.104Z,2.63
2023-08-23T02:23:27.772Z,1.98
2023-08-23T02:25:55.538Z,2.72
2023-08-23T02:28:23.037Z,3.13
2023-08-23T02:30:50.954Z,2.45
2023-08-23T02:33:19.426Z,2.53
2023-08-23T02:35:48.367Z,2.80
2023-08-23T02:38:16.404Z,2.50
2023-08-23T02:40:44.351Z,2.17
2023-08-23T02:43:11.993Z,2.50
2023-08-23T02:45:40.747Z,2.88
2023-08-23T02:48:12.166Z,2.63
2023-08-23T02:50:40.105Z,2.25
2023-08-23T02:53:07.824Z,2.80
2023-08-23T02:55:38.630Z,2.30
2023-08-23T02:58:06.718Z,2.53
2023-08-23T03:00:35.196Z,2.50
2023-08-23T03:03:02.959Z,2.13
2023-08-23T03:05:31.521Z,2.47
2023-08-23T03:07:59.053Z,2.67
2023-08-23T03:10:27.052Z,3.33
2023-08-23T03:12:54.819Z,2.13
2023-08-23T03:15:22.501Z,2.50
2023-08-23T03:17:50.517Z,2.30
2023-08-23T03:20:18.199Z,2.25
2023-08-23T03:22:46.042Z,2.58
2023-08-23T03:25:14.258Z,2.55
2023-08-23T03:27:42.659Z,2.95
2023-08-23T03:30:11.554Z,2.88
2023-08-23T03:32:39.255Z,2.70
2023-08-23T03:35:07.357Z,2.75
2023-08-23T03:37:35.963Z,2.53
2023-08-23T03:40:05.501Z,2.40
2023-08-23T03:42:32.973Z,2.60
2023-08-23T03:45:00.474Z,2.38
2023-08-23T03:47:27.903Z,2.10
2023-08-23T03:49:55.516Z,2.92
2023-08-23T03:52:23.320Z,2.78
2023-08-23T03:54:50.882Z,2.80
2023-08-23T03:57:18.369Z,2.75
2023-08-23T03:59:46.081Z,2.80
2023-08-23T04:02:13.584Z,2.25
2023-08-23T04:04:41.141Z,2.30
2023-08-23T04:07:10.640Z,2.08
2023-08-23T04:09:40.156Z,2.80
2023-08-23T04:12:10.017Z,2.78
2023-08-23T04:14:37.590Z,2.55
2023-08-23T04:17:06.046Z,2.95
2023-08-23T04:19:33.782Z,2.70
2023-08-23T04:22:01.401Z,2.30
2023-08-23T04:24:28.867Z,2.50
2023-08-23T04:26:56.336Z,3.10
2023-08-23T04:29:24.042Z,3.00
2023-08-23T04:31:52.055Z,3.17
2023-08-23T04:34:27.404Z,2.95
2023-08-23T04:36:55.040Z,3.33
2023-08-23T04:39:22.716Z,3.28
2023-08-23T04:41:51.068Z,3.38
2023-08-23T04:44:19.551Z,3.25
2023-08-23T04:46:47.497Z,3.72
2023-08-23T04:49:15.071Z,3.38
2023-08-23T04:51:43.392Z,3.47
2023-08-23T04:54:10.857Z,3.60
2023-08-23T04:56:38.355Z,3.35
2023-08-23T04:59:05.911Z,3.20
2023-08-23T05:01:33.596Z,3.63
2023-08-23T05:04:01.109Z,3.72
2023-08-23T05:06:28.678Z,3.50
2023-08-23T05:08:57.210Z,3.72
2023-08-23T05:11:26.541Z,3.65
2023-08-23T05:13:54.093Z,3.90
2023-08-23T05:16:21.807Z,3.42
2023-08-23T05:18:49.790Z,3.88
2023-08-23T05:21:17.227Z,3.78
2023-08-23T05:23:44.723Z,3.30
2023-08-23T05:26:12.437Z,3.67
2023-08-23T05:28:39.948Z,4.05
2023-08-23T05:31:07.658Z,3.40
2023-08-23T05:33:35.996Z,3.65
2023-08-23T05:36:05.440Z,3.20
2023-08-23T05:38:33.073Z,3.67
2023-08-23T05:41:03.013Z,3.43
2023-08-23T05:43:30.615Z,3.25
2023-08-23T05:45:58.658Z,3.33
2023-08-23T05:48:26.288Z,3.85
2023-08-23T05:50:53.812Z,3.92
2023-08-23T05:53:21.569Z,3.75
2023-08-23T05:55:50.809Z,3.38
2023-08-23T05:58:19.437Z,3.83
2023-08-23T06:00:48.380Z,3.35
2023-08-23T06:03:19.533Z,4.03
2023-08-23T06:05:47.443Z,3.60
2023-08-23T06:08:14.863Z,3.67
2023-08-23T06:10:42.397Z,3.55
2023-08-23T06:13:10.062Z,3.90
2023-08-23T06:15:37.746Z,4.65
2023-08-23T06:18:05.957Z,3.55
2023-08-23T06:20:33.725Z,3.97
2023-08-23T06:23:01.184Z,3.67
2023-08-23T06:25:29.031Z,3.40
2023-08-23T06:27:56.610Z,4.13
2023-08-23T06:30:24.244Z,4.32
2023-08-23T06:32:52.249Z,3.97
2023-08-23T06:35:21.914Z,3.30
2023-08-23T06:37:49.792Z,3.92
2023-08-23T06:40:17.876Z,3.45
2023-08-23T06:42:45.509Z,3.10
2023-08-23T06:45:13.790Z,4.40
2023-08-23T06:47:53.297Z,3.88
2023-08-23T06:50:20.914Z,3.53
2023-08-23T06:52:48.613Z,4.43
2023-08-23T06:55:16.503Z,3.47
2023-08-23T06:57:43.961Z,3.85
2023-08-23T07:00:13.277Z,3.17
2023-08-23T07:02:40.779Z,3.20
2023-08-23T07:05:09.296Z,4.03
2023-08-23T07:07:36.889Z,3.75
2023-08-23T07:10:17.877Z,4.78
2023-08-23T07:12:53.949Z,3.60
2023-08-23T07:15:21.860Z,3.22
2023-08-23T07:17:50.429Z,3.42
2023-08-23T07:20:18.385Z,3.17
2023-08-23T07:22:45.929Z,3.50
2023-08-23T07:25:13.640Z,3.95
2023-08-23T07:27:41.547Z,3.42
2023-08-23T07:30:09.677Z,3.70
2023-08-23T07:32:37.153Z,3.22
2023-08-23T07:35:05.283Z,3.03
2023-08-23T07:37:32.775Z,3.53
2023-08-23T07:40:00.629Z,3.35
2023-08-23T07:42:28.863Z,3.08
2023-08-23T07:44:56.538Z,3.38
2023-08-23T07:47:24.151Z,3.53
2023-08-23T07:49:52.866Z,3.05
2023-08-23T07:52:20.447Z,3.20
2023-08-23T07:54:47.975Z,2.97
2023-08-23T07:57:15.414Z,2.72
2023-08-23T07:59:42.911Z,2.42
2023-08-23T08:02:10.768Z,2.92
2023-08-23T08:04:38.462Z,2.65
2023-08-23T08:07:05.930Z,3.28
2023-08-23T08:09:33.512Z,2.45
2023-08-23T08:12:01.256Z,2.10
2023-08-23T08:14:28.758Z,2.75
2023-08-23T08:16:57.072Z,2.25
2023-08-23T08:19:24.549Z,2.65
2023-08-23T08:21:54.056Z,2.72
2023-08-23T08:24:21.563Z,2.15
2023-08-23T08:26:49.124Z,2.45
2023-08-23T08:29:17.649Z,2.40
2023-08-23T08:31:45.393Z,2.30
2023-08-23T08:34:15.751Z,2.72
2023-08-23T08:36:43.856Z,2.70
2023-08-23T08:39:11.353Z,2.65
2023-08-23T08:41:40.678Z,2.17
2023-08-23T08:44:12.522Z,2.72
2023-08-23T08:46:40.917Z,2.22
2023-08-23T08:49:08.543Z,2.20
2023-08-23T08:51:40.915Z,2.55
2023-08-23T08:54:09.797Z,2.90
2023-08-23T08:56:37.913Z,2.03
2023-08-23T08:59:06.082Z,2.53
2023-08-23T09:01:36.457Z,1.90
2023-08-23T09:04:04.486Z,1.95
2023-08-23T09:06:33.639Z,1.77
2023-08-23T09:09:02.586Z,2.08
2023-08-23T09:11:30.898Z,2.28
2023-08-23T09:13:58.503Z,2.08
2023-08-23T09:16:27.042Z,2.00
2023-08-23T09:18:56.696Z,1.65
2023-08-23T09:21:26.510Z,1.83
2023-08-23T09:23:55.490Z,2.10
2023-08-23T09:26:23.126Z,2.10
2023-08-23T09:28:50.814Z,1.73
2023-08-23T09:31:18.731Z,1.90
2023-08-23T09:33:47.421Z,1.90
2023-08-23T09:36:25.951Z,2.20
2023-08-23T09:38:53.507Z,2.22
2023-08-23T09:41:22.798Z,1.77
2023-08-23T09:43:55.769Z,1.90
2023-08-23T09:46:27.023Z,2.63
2023-08-23T09:48:55.252Z,2.20
2023-08-23T09:51:26.372Z,2.33
2023-08-23T09:53:59.119Z,2.20
2023-08-23T09:56:27.382Z,2.17
2023-08-23T09:58:56.450Z,2.20
2023-08-23T10:01:33.105Z,1.88
2023-08-23T10:04:03.137Z,2.20
2023-08-23T10:06:32.467Z,2.00
2023-08-23T10:09:00.440Z,2.00
2023-08-23T10:11:32.212Z,2.03
2023-08-23T10:14:09.039Z,2.53
2023-08-23T10:16:37.716Z,1.83
2023-08-23T10:19:05.622Z,2.13
2023-08-23T10:21:33.215Z,2.10
2023-08-23T10:24:05.196Z,2.28
2023-08-23T10:26:52.573Z,2.03
2023-08-23T10:29:29.593Z,2.10
2023-08-23T10:31:58.825Z,2.60
2023-08-23T10:34:27.696Z,2.30
2023-08-23T10:36:56.746Z,2.50
2023-08-23T10:39:28.239Z,1.90
2023-08-23T10:41:55.770Z,1.88
2023-08-23T10:44:23.838Z,2.53
2023-08-23T10:46:52.818Z,1.80
2023-08-23T10:49:21.894Z,1.90
2023-08-23T10:51:49.848Z,2.03
2023-08-23T10:54:17.507Z,2.10
2023-08-23T10:56:45.156Z,1.85
2023-08-23T10:59:12.967Z,1.80
2023-08-23T11:01:40.824Z,1.40
2023-08-23T11:04:09.987Z,1.52
2023-08-23T11:06:38.272Z,1.65
2023-08-23T11:09:05.835Z,1.90
2023-08-23T11:11:33.536Z,1.70
2023-08-23T11:14:01.055Z,1.65
2023-08-23T11:16:28.702Z,1.65
2023-08-23T11:18:56.619Z,1.90
2023-08-23T11:21:26.697Z,1.70
2023-08-23T11:23:54.169Z,1.88
2023-08-23T11:26:21.787Z,1.83
2023-08-23T11:28:49.240Z,1.60
2023-08-23T11:31:16.938Z,1.95
2023-08-23T11:33:44.657Z,1.95
2023-08-23T11:36:12.479Z,1.65
2023-08-23T11:38:41.565Z,2.08
2023-08-23T11:41:09.967Z,2.10
2023-08-23T11:43:44.003Z,1.73
2023-08-23T11:46:12.066Z,1.80
2023-08-23T11:48:39.712Z,2.22
2023-08-23T11:51:09.844Z,2.10
2023-08-23T11:53:37.323Z,1.65
2023-08-23T11:56:09.818Z,1.77
2023-08-23T11:58:37.774Z,1.75
2023-08-23T12:01:05.416Z,1.67
2023-08-23T12:03:33.258Z,1.75
2023-08-23T12:06:01.580Z,1.95
2023-08-23T12:08:29.078Z,1.95
2023-08-23T12:10:56.519Z,1.90
2023-08-23T12:13:24.045Z,1.75
2023-08-23T12:15:51.603Z,1.80
2023-08-23T12:18:19.460Z,2.17
2023-08-23T12:20:48.362Z,2.00
2023-08-23T12:23:16.090Z,2.33
2023-08-23T12:25:43.530Z,2.20
2023-08-23T12:28:11.075Z,2.05
2023-08-23T12:30:39.048Z,1.73
2023-08-23T12:33:06.941Z,2.05
2023-08-23T12:35:34.456Z,1.95
2023-08-23T12:38:01.905Z,2.00
2023-08-23T12:40:29.532Z,1.77
2023-08-23T12:42:57.175Z,1.85
2023-08-23T12:45:24.680Z,1.95
2023-08-23T12:47:52.700Z,2.08
2023-08-23T12:50:20.898Z,2.00
2023-08-23T12:52:48.580Z,1.92
2023-08-23T12:55:16.285Z,2.20
2023-08-23T12:57:43.825Z,2.03
2023-08-23T13:02:46.306Z,2.22
2023-08-23T13:05:13.891Z,1.98
2023-08-23T13:07:41.423Z,2.22
2023-08-23T13:10:09.652Z,1.85
2023-08-23T13:12:37.500Z,2.10
2023-08-23T13:15:05.588Z,2.15
2023-08-23T13:17:33.095Z,1.85
2023-08-23T13:20:00.674Z,2.28
2023-08-23T13:22:28.370Z,2.22
2023-08-23T13:24:55.984Z,2.10
2023-08-23T13:27:23.543Z,2.20
2023-08-23T13:29:51.164Z,2.15
2023-08-23T13:32:27.056Z,2.40
2023-08-23T13:34:55.269Z,2.13
2023-08-23T13:37:24.061Z,2.00
2023-08-23T13:39:51.588Z,2.47
2023-08-23T13:42:19.503Z,2.03
2023-08-23T13:44:47.151Z,1.95
2023-08-23T13:47:14.715Z,2.45
2023-08-23T13:49:42.631Z,2.05
2023-08-23T13:52:10.451Z,3.00
2023-08-23T13:54:37.976Z,2.22
2023-08-23T13:57:05.825Z,2.00
2023-08-23T13:59:33.288Z,2.40
2023-08-23T14:02:00.857Z,2.40
2023-08-23T14:04:28.876Z,2.25
2023-08-23T14:06:56.380Z,2.50
2023-08-23T14:09:24.260Z,2.53
2023-08-23T14:11:56.215Z,2.00
2023-08-23T14:14:26.301Z,1.63
2023-08-23T14:16:57.126Z,2.13
2023-08-23T14:19:25.575Z,1.85
2023-08-23T14:21:52.979Z,2.15
2023-08-23T14:24:20.561Z,2.50
2023-08-23T14:26:48.036Z,2.50
2023-08-23T14:29:15.642Z,1.88
2023-08-23T14:31:43.215Z,2.35
2023-08-23T14:34:11.306Z,2.95
2023-08-23T14:36:38.792Z,2.50
2023-08-23T14:39:07.418Z,2.03
2023-08-23T14:41:35.035Z,2.20
2023-08-23T14:44:02.633Z,2.20
2023-08-23T14:46:30.161Z,2.30
2023-08-23T14:48:59.490Z,2.60
2023-08-23T14:51:27.002Z,1.80
2023-08-23T14:53:54.563Z,1.95
2023-08-23T14:56:22.267Z,2.25
2023-08-23T14:58:50.030Z,2.15
2023-08-23T15:01:17.530Z,2.20
2023-08-23T15:03:45.415Z,2.28
2023-08-23T15:06:12.949Z,2.22
2023-08-23T15:08:41.252Z,1.77
2023-08-23T15:11:08.751Z,2.25
2023-08-23T15:13:36.327Z,1.85
2023-08-23T15:16:03.948Z,2.03
2023-08-23T15:18:31.541Z,2.15
2023-08-23T15:20:59.001Z,2.22
2023-08-23T15:23:26.613Z,2.35
2023-08-23T15:25:54.144Z,2.10
2023-08-23T15:28:22.517Z,3.25
2023-08-23T15:30:50.073Z,2.25
2023-08-23T15:33:19.388Z,1.88
2023-08-23T15:35:46.857Z,2.53
2023-08-23T15:38:14.291Z,1.98
2023-08-23T15:40:41.850Z,2.15
2023-08-23T15:43:09.432Z,2.08
2023-08-23T15:45:36.966Z,2.30
2023-08-23T15:48:05.661Z,1.85
2023-08-23T15:50:33.148Z,1.90
2023-08-23T15:53:00.721Z,2.17
2023-08-23T15:55:30.596Z,2.42
2023-08-23T15:57:58.081Z,2.70
2023-08-23T16:00:26.201Z,1.85
2023-08-23T16:02:53.729Z,2.38
2023-08-23T16:05:21.230Z,2.60
2023-08-23T16:07:49.024Z,2.30
2023-08-23T16:10:16.879Z,2.50
2023-08-23T16:12:44.364Z,2.58
2023-08-23T16:15:11.910Z,2.53
2023-08-23T16:17:40.362Z,2.60
2023-08-23T16:20:09.853Z,1.83
2023-08-23T16:22:37.555Z,1.90
2023-08-23T16:25:05.350Z,1.90
2023-08-23T16:27:32.794Z,2.05
2023-08-23T16:30:02.454Z,2.28
2023-08-23T16:34:58.860Z,2.28
2023-08-23T16:37:26.345Z,2.30
2023-08-23T16:39:53.827Z,2.47
2023-08-23T16:42:21.353Z,2.45
2023-08-23T16:44:48.822Z,2.20
2023-08-23T16:47:16.402Z,2.42
2023-08-23T16:49:43.991Z,2.10
2023-08-23T16:52:11.478Z,2.22
2023-08-23T16:54:39.053Z,2.08
2023-08-23T16:57:06.591Z,2.30
2023-08-23T16:59:34.237Z,2.03
2023-08-23T17:02:01.830Z,2.75
2023-08-23T17:04:31.318Z,2.30
2023-08-23T17:06:59.065Z,2.40
2023-08-23T17:09:26.782Z,2.05
2023-08-23T17:11:54.339Z,2.15
2023-08-23T17:14:21.783Z,1.80
2023-08-23T17:16:49.502Z,2.60
2023-08-23T17:19:17.050Z,2.53
2023-08-23T17:21:44.821Z,2.58
2023-08-23T17:24:12.315Z,2.42
2023-08-23T17:26:39.779Z,1.92
2023-08-23T17:29:07.429Z,1.70
2023-08-23T17:31:35.413Z,2.15
2023-08-23T17:34:03.309Z,2.40
2023-08-23T17:36:30.753Z,2.40
2023-08-23T17:38:58.265Z,2.35
2023-08-23T17:41:25.785Z,2.60
2023-08-23T17:43:54.899Z,2.90
2023-08-23T17:46:57.875Z,2.35
2023-08-23T17:49:25.338Z,2.30
2023-08-23T17:51:52.924Z,2.70
2023-08-23T17:54:20.467Z,2.83
2023-08-23T17:56:47.989Z,3.00
2023-08-23T17:59:16.097Z,6.20
2023-08-23T18:01:43.806Z,7.15
2023-08-23T18:04:11.943Z,3.90
2023-08-23T18:06:40.275Z,2.92
2023-08-23T18:09:07.839Z,2.72
2023-08-23T18:11:35.696Z,2.70
2023-08-23T18:14:04.367Z,3.88
2023-08-23T18:16:32.048Z,3.42
2023-08-23T18:18:59.473Z,3.42
2023-08-23T18:21:27.618Z,2.90
2023-08-23T18:23:56.078Z,4.00
2023-08-23T18:26:24.121Z,3.40
2023-08-23T18:28:51.643Z,3.17
2023-08-23T18:31:20.414Z,3.15
2023-08-23T18:33:48.149Z,2.92
2023-08-23T18:36:15.584Z,5.90
2023-08-23T18:38:43.333Z,3.80
2023-08-23T18:41:11.215Z,3.78
2023-08-23T18:43:38.747Z,4.03
2023-08-23T18:46:06.237Z,3.05
2023-08-23T18:48:33.863Z,3.42
2023-08-23T18:51:04.017Z,4.43
2023-08-23T18:53:31.619Z,4.05
2023-08-23T18:55:59.296Z,4.38
2023-08-23T18:58:26.764Z,5.28
2023-08-23T19:00:58.670Z,5.20
2023-08-23T19:03:27.545Z,4.63
2023-08-23T19:05:55.880Z,4.03
2023-08-23T19:08:23.366Z,4.20
2023-08-23T19:10:50.845Z,4.15
2023-08-23T19:13:18.405Z,3.95
2023-08-23T19:15:46.049Z,3.42
2023-08-23T19:18:14.251Z,3.55
2023-08-23T19:20:41.702Z,3.83
2023-08-23T19:23:09.183Z,3.83
2023-08-23T19:25:37.041Z,3.00
2023-08-23T19:28:05.210Z,3.17
2023-08-23T19:30:33.112Z,3.60
2023-08-23T19:33:00.675Z,3.90
2023-08-23T19:35:44.776Z,3.83
2023-08-23T19:38:12.974Z,3.85
2023-08-23T19:40:40.998Z,4.93
2023-08-23T19:43:08.993Z,5.00
2023-08-23T19:45:36.973Z,5.15
2023-08-23T19:48:13.923Z,3.47
2023-08-23T19:50:52.549Z,3.05
2023-08-23T19:53:20.107Z,3.50
2023-08-23T19:55:47.695Z,3.63
2023-08-23T19:58:20.221Z,3.38
2023-08-23T20:00:47.794Z,3.33
2023-08-23T20:03:15.327Z,3.70
2023-08-23T20:05:44.845Z,3.95
2023-08-23T20:08:12.351Z,3.47
2023-08-23T20:10:39.922Z,3.67
2023-08-23T20:13:07.536Z,4.53
2023-08-23T20:15:35.175Z,4.10
2023-08-23T20:18:02.925Z,3.90
2023-08-23T20:20:30.407Z,3.70
2023-08-23T20:22:57.992Z,3.40
2023-08-23T20:25:25.402Z,2.80
2023-08-23T20:27:53.639Z,3.30
2023-08-23T20:30:21.240Z,3.38
2023-08-23T20:32:48.881Z,3.50
2023-08-23T20:35:20.406Z,3.75
2023-08-23T20:37:49.141Z,4.13
2023-08-23T20:40:20.169Z,3.15
2023-08-23T20:42:50.131Z,3.30
2023-08-23T20:45:17.818Z,2.95
2023-08-23T20:47:45.602Z,3.97
2023-08-23T20:50:13.053Z,3.50
2023-08-23T20:52:44.049Z,3.00
2023-08-23T20:55:11.841Z,3.63
2023-08-23T20:57:40.041Z,3.17
2023-08-23T21:00:08.512Z,2.70
2023-08-23T21:02:36.051Z,2.88
2023-08-23T21:05:04.321Z,3.13
2023-08-23T21:07:31.895Z,3.05
2023-08-23T21:09:59.836Z,3.58
2023-08-23T21:12:27.512Z,3.35
2023-08-23T21:14:54.932Z,3.75
2023-08-23T21:17:23.119Z,3.88
2023-08-23T21:19:50.622Z,4.15
2023-08-23T21:22:18.160Z,2.80
2023-08-23T21:24:45.747Z,3.10
2023-08-23T21:27:13.316Z,3.33
2023-08-23T21:29:40.773Z,2.88
2023-08-23T21:32:09.180Z,3.50
2023-08-23T21:34:37.486Z,3.05
2023-08-23T21:37:05.304Z,3.22
2023-08-23T21:39:32.820Z,3.17
2023-08-23T21:42:00.446Z,2.55
2023-08-23T21:44:27.896Z,2.90
2023-08-23T21:46:56.078Z,2.90
2023-08-23T21:49:23.764Z,2.92
2023-08-23T21:51:51.156Z,2.78
2023-08-23T21:54:18.862Z,2.85
2023-08-23T21:56:46.490Z,2.63
2023-08-23T21:59:14.306Z,3.00
2023-08-23T22:01:42.099Z,2.47
2023-08-23T22:04:10.103Z,2.85
2023-08-23T22:06:37.621Z,2.92
2023-08-23T22:09:06.193Z,3.53
2023-08-23T22:11:33.927Z,4.68
2023-08-23T22:14:01.469Z,4.72
2023-08-23T22:16:29.201Z,6.05
2023-08-23T22:18:56.719Z,5.53
2023-08-23T22:21:24.232Z,4.38
2023-08-23T22:23:52.158Z,4.35
2023-08-23T22:26:19.757Z,4.15
2023-08-23T22:28:47.240Z,3.72
2023-08-23T22:31:15.177Z,3.70
2023-08-23T22:33:44.219Z,3.70
2023-08-23T22:36:12.925Z,3.43
2023-08-23T22:38:44.384Z,4.28
2023-08-23T22:41:12.648Z,3.10
2023-08-23T22:43:40.092Z,3.20
2023-08-23T22:46:14.807Z,3.25
2023-08-23T22:48:53.228Z,3.20
2023-08-23T22:51:21.016Z,3.00
2023-08-23T22:53:48.765Z,3.28
2023-08-23T22:56:16.204Z,2.88
2023-08-23T22:58:43.902Z,3.63
2023-08-23T23:01:11.675Z,3.08
2023-08-23T23:03:39.382Z,2.67
2023-08-23T23:06:07.851Z,3.15
2023-08-23T23:08:36.245Z,2.80
2023-08-23T23:11:05.367Z,3.08
2023-08-23T23:13:33.356Z,3.50
2023-08-23T23:16:05.896Z,2.85
2023-08-23T23:18:37.490Z,2.50
2023-08-23T23:21:06.439Z,2.83
2023-08-23T23:23:34.316Z,2.95
2023-08-23T23:26:01.842Z,2.40
2023-08-23T23:28:29.365Z,2.88
2023-08-23T23:30:57.138Z,2.70
2023-08-23T23:33:26.950Z,2.90
2023-08-23T23:35:54.558Z,2.55
2023-08-23T23:38:22.290Z,2.70
2023-08-23T23:40:49.760Z,2.78
2023-08-23T23:43:17.520Z,2.90
2023-08-23T23:45:45.107Z,2.92
2023-08-23T23:48:14.022Z,3.17
2023-08-23T23:50:41.587Z,3.25
2023-08-23T23:53:10.271Z,3.38
2023-08-23T23:55:37.824Z,3.25
2023-08-23T23:58:05.789Z,2.80
